Mondy, Russia
Current Conditions -  °F | °C
As of 5:30 AM on Thursday 18 Dec 2014 (Local Time) from UIII Reporting Station
Clear Clear  
Wind Chill: -2°   Ceiling: Unl
Heat Index: 12°   Visibility: 6mi
Dew Point:   Wind: 11mph
Humidity: 79%   Direction: 290°WNW
Pressure: 30.3"   Gusts: NA
Location:  51.68°N, 100.98°E
Report Text: UIII 172130Z 29005MPS CAVOK M11/M14 Q1026 NOSIG RMK QFE724/096630490240
Loading
Personal Weather Stations






























Interactive Weather Map New forecast layout! Learn more

10-Day Weather Forecast

Advertisements
Track Severe Weather on mobile